Time;durP1;ratioP1;P1;durP2;ratioP2;P2;SDS_P1;SDS_P2;PMS_P1;PMS_P2;Temp;Humidity;BMP_temperature;BMP_pressure;BME280_temperature;BME280_humidity;BME280_pressure;Samples;Min_cycle;Max_cycle;Signal;HPM_P1;HPM_P2
2023/08/22 00:00:13;;;;;;;9.83;4.53;;;22.70;99.90;;;;;;4969675;28;20180;-83
2023/08/22 00:02:38;;;;;;;4.67;4.27;;;22.70;99.90;;;;;;4974695;28;20206;-83
2023/08/22 00:05:05;;;;;;;5.80;4.80;;;22.70;99.90;;;;;;4969852;28;21106;-83
2023/08/22 00:07:30;;;;;;;4.20;3.40;;;22.60;99.90;;;;;;4974528;28;20806;-83
2023/08/22 00:09:56;;;;;;;5.40;4.90;;;22.60;99.90;;;;;;4980131;28;21027;-82
2023/08/22 00:12:22;;;;;;;8.90;4.50;;;22.60;99.90;;;;;;4976379;28;20186;-84
2023/08/22 00:14:50;;;;;;;4.57;4.07;;;22.50;99.90;;;;;;4973827;28;20179;-83
2023/08/22 00:17:16;;;;;;;5.40;4.53;;;23.50;99.90;;;;;;4980052;28;20241;-82
2023/08/22 00:19:42;;;;;;;8.17;4.07;;;22.40;99.90;;;;;;4974304;28;20471;-84
2023/08/22 00:22:07;;;;;;;5.83;3.90;;;22.40;99.90;;;;;;4969134;28;20457;-82
2023/08/22 00:24:33;;;;;;;5.10;4.60;;;22.50;99.90;;;;;;4970016;28;20187;-83
2023/08/22 00:26:59;;;;;;;5.97;4.00;;;22.50;99.90;;;;;;4968988;28;20212;-83
2023/08/22 00:29:24;;;;;;;4.47;4.00;;;22.50;99.90;;;;;;4971278;28;20206;-83
2023/08/22 00:31:50;;;;;;;6.63;3.20;;;22.40;99.90;;;;;;4973799;28;20182;-83
2023/08/22 00:34:16;;;;;;;5.43;4.47;;;22.40;99.90;;;;;;5001295;28;20192;-83
2023/08/22 00:36:41;;;;;;;4.20;3.80;;;22.40;99.90;;;;;;4984200;28;20263;-84
2023/08/22 00:39:07;;;;;;;6.20;4.03;;;22.40;99.90;;;;;;4979631;28;20280;-83
2023/08/22 00:41:34;;;;;;;7.80;4.03;;;22.30;99.90;;;;;;4976828;28;21136;-86
2023/08/22 00:43:59;;;;;;;4.30;3.27;;;22.30;99.90;;;;;;4981320;28;20980;-82
2023/08/22 00:46:28;;;;;;;5.33;3.87;;;22.40;99.90;;;;;;4979369;28;20491;-83
2023/08/22 00:48:54;;;;;;;8.47;4.10;;;22.40;99.90;;;;;;4976322;28;20258;-83
2023/08/22 00:51:21;;;;;;;7.20;4.33;;;22.40;99.90;;;;;;4973217;28;20431;-82
2023/08/22 00:53:47;;;;;;;6.10;3.40;;;22.40;99.90;;;;;;4977401;28;20433;-83
2023/08/22 00:56:13;;;;;;;6.07;3.77;;;22.50;99.90;;;;;;4975726;28;20446;-84
2023/08/22 00:58:39;;;;;;;7.90;4.00;;;22.50;99.90;;;;;;4979830;28;20470;-83
2023/08/22 01:01:05;;;;;;;9.10;4.73;;;22.50;99.90;;;;;;4982533;28;20180;-85
2023/08/22 01:03:30;;;;;;;11.63;3.70;;;22.60;99.90;;;;;;4977207;28;20465;-82
2023/08/22 01:06:26;;;;;;;8.73;4.53;;;22.50;99.90;;;;;;4977907;28;20207;-83
2023/08/22 01:08:57;;;;;;;5.87;4.00;;;22.40;99.90;;;;;;4966852;28;20222;-83
2023/08/22 01:11:39;;;;;;;7.10;3.90;;;22.30;99.90;;;;;;4971952;28;20438;-83
2023/08/22 01:14:09;;;;;;;6.17;4.60;;;22.20;99.90;;;;;;4968989;28;20474;-82
2023/08/22 01:16:35;;;;;;;6.30;3.70;;;22.20;99.90;;;;;;4967595;28;20969;-83
2023/08/22 01:19:04;;;;;;;7.13;4.03;;;22.10;99.90;;;;;;4966600;28;20462;-85
2023/08/22 01:21:33;;;;;;;5.53;3.37;;;22.20;99.90;;;;;;4974157;28;20442;-82
2023/08/22 01:23:58;;;;;;;5.70;3.43;;;22.20;99.90;;;;;;4969012;28;21068;-83
2023/08/22 01:26:24;;;;;;;7.20;4.30;;;22.20;99.90;;;;;;4968369;28;20469;-83
2023/08/22 01:28:54;;;;;;;5.40;4.00;;;22.30;99.90;;;;;;4970120;28;20282;-81
2023/08/22 01:31:31;;;;;;;8.20;3.50;;;22.30;99.90;;;;;;4982907;28;20647;-84
2023/08/22 01:34:22;;;;;;;5.83;3.87;;;22.30;99.90;;;;;;4973474;28;20439;-85
2023/08/22 01:36:49;;;;;;;5.10;3.73;;;22.40;99.90;;;;;;4969432;28;20564;-81
2023/08/22 01:39:18;;;;;;;6.73;4.23;;;22.40;99.90;;;;;;4975315;28;20543;-83
2023/08/22 01:41:46;;;;;;;7.40;3.80;;;22.30;99.90;;;;;;4971110;28;20534;-84
2023/08/22 01:44:12;;;;;;;6.93;3.93;;;22.20;99.90;;;;;;4973128;28;20970;-84
2023/08/22 01:46:38;;;;;;;5.37;3.73;;;22.20;99.90;;;;;;4975327;28;20476;-84
2023/08/22 01:49:03;;;;;;;5.40;3.77;;;22.20;99.90;;;;;;4963436;28;20525;-85
2023/08/22 01:51:29;;;;;;;5.10;4.60;;;22.10;99.90;;;;;;4965979;28;20220;-84
2023/08/22 01:53:55;;;;;;;6.57;4.33;;;22.00;99.90;;;;;;4982998;28;20180;-82
2023/08/22 01:56:20;;;;;;;4.40;3.90;;;22.10;99.90;;;;;;4975758;28;20309;-84
2023/08/22 01:58:46;;;;;;;5.47;3.73;;;22.00;99.90;;;;;;4965444;28;20217;-82
2023/08/22 02:01:12;;;;;;;6.00;3.87;;;22.10;99.90;;;;;;4976656;28;20195;-80
2023/08/22 02:03:42;;;;;;;5.27;4.00;;;22.10;99.90;;;;;;4975806;28;20183;-83
2023/08/22 02:06:08;;;;;;;4.00;3.60;;;22.10;99.90;;;;;;4981124;28;20467;-83
2023/08/22 02:08:33;;;;;;;8.87;4.30;;;22.10;99.90;;;;;;4972826;28;20475;-83
2023/08/22 02:10:59;;;;;;;6.23;5.40;;;21.90;99.90;;;;;;4972371;28;20430;-80
2023/08/22 02:13:25;;;;;;;9.50;4.20;;;21.80;99.90;;;;;;4969509;28;20192;-83
2023/08/22 02:15:50;;;;;;;9.53;4.90;;;21.60;99.90;;;;;;4966427;28;20187;-84
2023/08/22 02:18:16;;;;;;;5.70;4.80;;;21.50;99.90;;;;;;4976420;28;20238;-79
2023/08/22 02:20:42;;;;;;;8.90;4.43;;;21.60;99.90;;;;;;4980620;28;20179;-80
2023/08/22 02:23:07;;;;;;;5.60;3.83;;;21.50;99.90;;;;;;4975761;28;20459;-85
2023/08/22 02:25:33;;;;;;;7.00;4.47;;;21.50;99.90;;;;;;4974543;28;20199;-81
2023/08/22 02:27:59;;;;;;;5.80;4.57;;;21.60;99.90;;;;;;4973680;28;20229;-83
2023/08/22 02:30:25;;;;;;;8.10;4.03;;;21.50;99.90;;;;;;4976909;28;20188;-83
2023/08/22 02:32:50;;;;;;;4.80;4.00;;;21.50;99.90;;;;;;4978030;28;20430;-80
2023/08/22 02:35:16;;;;;;;5.33;4.60;;;21.50;99.90;;;;;;4980088;28;20210;-85
2023/08/22 02:37:42;;;;;;;21.40;4.80;;;21.50;99.90;;;;;;4971297;28;20186;-84
2023/08/22 02:40:10;;;;;;;9.00;5.40;;;21.50;99.90;;;;;;4967392;28;20717;-80
2023/08/22 02:42:36;;;;;;;5.43;4.87;;;21.40;99.90;;;;;;4982889;28;20188;-82
2023/08/22 02:45:03;;;;;;;7.10;5.23;;;21.30;99.90;;;;;;4973050;28;20453;-84
2023/08/22 02:47:29;;;;;;;8.43;4.53;;;21.40;99.90;;;;;;4973442;28;20473;-81
2023/08/22 02:49:54;;;;;;;7.30;4.60;;;21.30;99.90;;;;;;4975086;28;20426;-82
2023/08/22 02:52:20;;;;;;;5.87;4.80;;;21.30;99.90;;;;;;4976108;28;20595;-81
2023/08/22 02:54:45;;;;;;;20.10;4.90;;;21.20;99.90;;;;;;4975019;28;20215;-84
2023/08/22 02:57:11;;;;;;;9.07;5.00;;;21.10;99.90;;;;;;4971661;28;20188;-81
2023/08/22 02:59:37;;;;;;;12.40;4.70;;;21.30;99.90;;;;;;4982281;28;20207;-81
2023/08/22 03:02:03;;;;;;;9.47;4.50;;;21.00;99.90;;;;;;4970532;28;20191;-82
2023/08/22 03:04:29;;;;;;;8.50;4.70;;;20.90;99.90;;;;;;4968845;28;20179;-83
2023/08/22 03:06:54;;;;;;;12.43;4.67;;;20.80;99.90;;;;;;4976743;28;20561;-84
2023/08/22 03:09:21;;;;;;;8.37;4.83;;;20.70;99.90;;;;;;4967751;28;20206;-84
2023/08/22 03:11:47;;;;;;;7.80;4.70;;;20.60;99.90;;;;;;4970719;28;21849;-82
2023/08/22 03:14:13;;;;;;;11.70;5.07;;;20.60;99.90;;;;;;4966204;28;20664;-84
2023/08/22 03:16:38;;;;;;;6.83;4.80;;;20.60;99.90;;;;;;4970907;28;20189;-80
2023/08/22 03:19:04;;;;;;;15.20;5.50;;;20.60;99.90;;;;;;4964328;28;20709;-84
2023/08/22 03:21:29;;;;;;;9.00;4.43;;;20.60;99.90;;;;;;4970171;28;20187;-82
2023/08/22 03:23:55;;;;;;;7.73;5.70;;;20.60;99.90;;;;;;4971066;28;20230;-83
2023/08/22 03:26:20;;;;;;;6.90;5.90;;;20.70;99.90;;;;;;4965848;28;20219;-80
2023/08/22 03:28:46;;;;;;;7.00;4.90;;;20.70;99.90;;;;;;4980157;28;20215;-83
2023/08/22 03:31:11;;;;;;;12.83;5.63;;;20.60;99.90;;;;;;4979566;28;20182;-84
2023/08/22 03:33:37;;;;;;;9.00;5.30;;;20.60;99.90;;;;;;4969438;28;20366;-83
2023/08/22 03:36:03;;;;;;;9.57;5.70;;;20.60;99.90;;;;;;4971961;28;20273;-81
2023/08/22 03:38:29;;;;;;;8.47;5.33;;;20.60;99.90;;;;;;4975950;28;20215;-80
2023/08/22 03:40:56;;;;;;;6.27;4.90;;;20.60;99.90;;;;;;4975379;28;20459;-83
2023/08/22 03:43:22;;;;;;;8.53;5.00;;;20.60;99.90;;;;;;4969312;28;20482;-84
2023/08/22 03:45:47;;;;;;;8.07;5.03;;;20.60;99.90;;;;;;4973809;28;20439;-84
2023/08/22 03:48:13;;;;;;;6.07;5.30;;;20.50;99.90;;;;;;4969845;28;20322;-85
2023/08/22 03:50:40;;;;;;;6.97;5.33;;;20.50;99.90;;;;;;4972330;28;20559;-81
2023/08/22 03:53:06;;;;;;;8.33;5.50;;;20.50;99.90;;;;;;4971568;28;20184;-82
2023/08/22 03:55:31;;;;;;;12.20;5.90;;;20.60;99.90;;;;;;4971785;28;20439;-85
2023/08/22 03:57:58;;;;;;;6.40;5.10;;;20.60;99.90;;;;;;4970074;28;21201;-85
2023/08/22 04:00:24;;;;;;;8.70;5.13;;;20.50;99.90;;;;;;4962033;28;21648;-84
2023/08/22 04:02:57;;;;;;;5.83;4.60;;;20.50;99.90;;;;;;4968741;28;20435;-81
2023/08/22 04:05:23;;;;;;;6.80;5.67;;;20.50;99.90;;;;;;4967666;28;20446;-84
2023/08/22 04:07:50;;;;;;;7.13;4.80;;;20.50;99.90;;;;;;4969937;28;20466;-80
2023/08/22 04:10:16;;;;;;;8.70;5.90;;;20.50;99.90;;;;;;4969086;28;20891;-80
2023/08/22 04:12:42;;;;;;;10.70;6.20;;;20.40;99.90;;;;;;4976148;28;20443;-83
2023/08/22 04:15:09;;;;;;;6.60;5.73;;;20.40;99.90;;;;;;4969388;28;20470;-82
2023/08/22 04:17:35;;;;;;;6.80;6.10;;;20.50;99.90;;;;;;4976197;28;20187;-80
2023/08/22 04:20:03;;;;;;;8.00;6.03;;;20.50;99.90;;;;;;4977349;28;20434;-80
2023/08/22 04:22:30;;;;;;;7.17;5.70;;;20.50;99.90;;;;;;4971180;28;20451;-83
2023/08/22 04:24:56;;;;;;;8.80;5.53;;;20.50;99.90;;;;;;4976875;28;20506;-83
2023/08/22 04:27:22;;;;;;;7.40;4.83;;;20.50;99.90;;;;;;4958238;28;21273;-81
2023/08/22 04:29:47;;;;;;;10.63;5.43;;;20.50;99.90;;;;;;4967375;28;20537;-83
2023/08/22 04:32:13;;;;;;;9.80;5.50;;;20.50;99.90;;;;;;4972422;28;20242;-83
2023/08/22 04:34:38;;;;;;;7.80;5.50;;;20.40;99.90;;;;;;4971836;28;21004;-82
2023/08/22 04:37:04;;;;;;;8.70;5.23;;;20.40;99.90;;;;;;4966694;28;20194;-83
2023/08/22 04:39:30;;;;;;;5.13;4.63;;;20.50;99.90;;;;;;4963161;28;20738;-83
2023/08/22 04:41:55;;;;;;;7.97;5.60;;;20.60;99.90;;;;;;4965446;28;20240;-85
2023/08/22 04:44:21;;;;;;;6.40;5.67;;;22.00;99.90;;;;;;4967523;28;20187;-83
2023/08/22 04:46:46;;;;;;;9.33;5.83;;;20.90;99.90;;;;;;4967804;28;20211;-82
2023/08/22 04:49:12;;;;;;;6.43;5.53;;;21.20;99.90;;;;;;4968535;28;20691;-81
2023/08/22 04:51:37;;;;;;;6.80;4.97;;;21.80;99.90;;;;;;4973904;28;20190;-83
2023/08/22 04:54:03;;;;;;;8.30;6.20;;;22.40;99.90;;;;;;4972982;28;20211;-81
2023/08/22 04:56:28;;;;;;;5.60;4.80;;;23.00;99.90;;;;;;4966670;28;20211;-83
2023/08/22 04:58:54;;;;;;;7.10;4.90;;;23.40;99.90;;;;;;4973716;28;20205;-81
2023/08/22 05:01:19;;;;;;;9.20;4.83;;;23.20;99.90;;;;;;4980896;28;20188;-80
2023/08/22 05:03:45;;;;;;;8.57;5.37;;;23.00;99.90;;;;;;4978433;28;20286;-81
2023/08/22 05:06:11;;;;;;;9.80;5.60;;;22.90;99.90;;;;;;4974616;28;22097;-85
2023/08/22 05:08:37;;;;;;;5.13;4.63;;;23.10;99.90;;;;;;4975103;28;20466;-82
2023/08/22 05:11:03;;;;;;;5.80;4.93;;;;;;;;;;4971136;28;20668;-83
2023/08/22 05:13:28;;;;;;;7.07;4.30;;;25.00;99.90;;;;;;4966212;28;20268;-84
2023/08/22 05:15:54;;;;;;;6.53;4.70;;;25.80;99.90;;;;;;4971391;28;20435;-81
2023/08/22 05:18:19;;;;;;;6.63;4.70;;;26.20;99.90;;;;;;4970054;28;20213;-79
2023/08/22 05:20:45;;;;;;;10.67;5.60;;;26.70;99.90;;;;;;4967659;28;20193;-81
2023/08/22 05:23:10;;;;;;;7.00;4.60;;;27.40;99.90;;;;;;4977097;28;20906;-83
2023/08/22 05:25:36;;;;;;;5.47;4.50;;;27.80;99.90;;;;;;4968470;28;20186;-87
2023/08/22 05:28:01;;;;;;;8.73;5.30;;;28.30;99.90;;;;;;4961810;28;20215;-86
2023/08/22 05:30:27;;;;;;;6.73;5.00;;;29.40;99.90;;;;;;4963526;28;20880;-85
2023/08/22 05:32:52;;;;;;;7.40;5.23;;;30.20;99.90;;;;;;4970305;28;20888;-83
2023/08/22 05:35:18;;;;;;;10.10;5.40;;;30.40;99.90;;;;;;4970323;28;20201;-83
2023/08/22 05:37:43;;;;;;;10.20;6.60;;;31.20;99.90;;;;;;4975958;28;20183;-83
2023/08/22 05:40:09;;;;;;;8.33;7.30;;;32.20;99.90;;;;;;4962200;28;20183;-84
2023/08/22 05:42:35;;;;;;;14.43;6.20;;;33.70;99.90;;;;;;4964913;28;20185;-83
2023/08/22 05:45:01;;;;;;;13.10;6.70;;;35.20;99.90;;;;;;4966866;28;20442;-85
2023/08/22 05:47:26;;;;;;;13.70;8.17;;;36.50;99.90;;;;;;4967036;28;21823;-83
2023/08/22 05:49:52;;;;;;;7.53;6.83;;;37.90;99.90;;;;;;4967909;28;20221;-86
2023/08/22 05:52:18;;;;;;;8.93;7.63;;;38.80;95.40;;;;;;4969364;28;20189;-85
2023/08/22 05:54:44;;;;;;;10.00;7.40;;;39.90;92.20;;;;;;4976910;28;20180;-83
2023/08/22 05:57:10;;;;;;;14.70;8.60;;;40.80;87.40;;;;;;4960895;28;20447;-85
2023/08/22 05:59:36;;;;;;;10.60;8.70;;;40.50;80.40;;;;;;4962501;28;20766;-86
2023/08/22 06:02:02;;;;;;;9.27;8.47;;;40.30;78.60;;;;;;4962707;28;20190;-84
2023/08/22 06:04:27;;;;;;;11.33;10.13;;;41.20;78.00;;;;;;4966814;28;20455;-85
2023/08/22 06:06:53;;;;;;;14.60;11.00;;;42.10;74.20;;;;;;4964016;28;20418;-84
2023/08/22 06:09:18;;;;;;;11.40;10.30;;;43.40;70.00;;;;;;4962235;28;20242;-86
2023/08/22 06:11:44;;;;;;;12.93;11.53;;;44.10;64.50;;;;;;4962868;28;20260;-87
2023/08/22 06:14:10;;;;;;;12.23;11.07;;;44.80;61.40;;;;;;4976568;28;20297;-85
2023/08/22 06:16:35;;;;;;;14.90;13.50;;;45.30;58.40;;;;;;4964219;28;20534;-82
2023/08/22 06:19:01;;;;;;;14.23;12.87;;;43.80;56.70;;;;;;4972109;28;20211;-84
2023/08/22 06:21:27;;;;;;;13.67;12.63;;;42.40;59.00;;;;;;4979692;28;20668;-79
2023/08/22 06:23:52;;;;;;;14.80;13.30;;;43.00;59.00;;;;;;4975945;28;20200;-80
2023/08/22 06:26:20;;;;;;;14.00;12.80;;;42.40;58.50;;;;;;4969240;28;22178;-80
2023/08/22 06:28:46;;;;;;;14.90;13.63;;;43.20;59.10;;;;;;4969159;28;20226;-82
2023/08/22 06:31:13;;;;;;;14.97;13.77;;;43.90;57.60;;;;;;4976436;28;20441;-82
2023/08/22 06:33:38;;;;;;;18.23;15.03;;;45.20;56.50;;;;;;4973933;28;20437;-84
2023/08/22 06:36:04;;;;;;;15.53;14.00;;;45.10;54.40;;;;;;4972996;28;20187;-83
2023/08/22 06:38:29;;;;;;;14.23;13.13;;;44.70;54.20;;;;;;4966409;28;20212;-82
2023/08/22 06:40:55;;;;;;;16.20;14.97;;;43.60;54.70;;;;;;4967320;28;20191;-82
2023/08/22 06:43:22;;;;;;;15.63;14.13;;;42.80;55.90;;;;;;4960369;28;20187;-84
2023/08/22 06:45:47;;;;;;;17.33;14.37;;;41.80;56.90;;;;;;4969079;28;20193;-82
2023/08/22 06:48:13;;;;;;;16.90;15.50;;;40.80;59.00;;;;;;4960975;28;20459;-82
2023/08/22 06:50:38;;;;;;;17.33;15.17;;;39.90;60.70;;;;;;4964226;28;20274;-81
2023/08/22 06:53:04;;;;;;;15.97;14.40;;;41.30;60.00;;;;;;4967466;28;20191;-82
2023/08/22 06:55:30;;;;;;;16.77;15.17;;;41.40;59.70;;;;;;4963948;28;20186;-80
2023/08/22 06:57:55;;;;;;;15.60;14.00;;;41.60;58.80;;;;;;4968357;28;20222;-86
2023/08/22 07:00:21;;;;;;;20.07;15.20;;;42.90;58.50;;;;;;4962761;28;20201;-84
2023/08/22 07:02:47;;;;;;;17.47;14.67;;;41.90;57.00;;;;;;4968048;28;20199;-82
2023/08/22 07:05:15;;;;;;;14.40;12.97;;;41.00;59.30;;;;;;4966786;28;20443;-83
2023/08/22 07:07:41;;;;;;;14.03;12.77;;;40.70;59.20;;;;;;4966922;28;20488;-82
2023/08/22 07:10:08;;;;;;;12.30;11.40;;;41.00;60.00;;;;;;4973136;28;20438;-83
2023/08/22 07:12:35;;;;;;;12.87;11.77;;;40.20;57.30;;;;;;4973864;28;20198;-82
2023/08/22 07:15:00;;;;;;;12.77;11.40;;;38.90;61.00;;;;;;4972662;28;20933;-81
2023/08/22 07:17:26;;;;;;;11.73;9.90;;;37.40;64.20;;;;;;4974347;28;20474;-86
2023/08/22 07:19:52;;;;;;;11.80;9.27;;;36.40;71.20;;;;;;4967097;28;20290;-80
2023/08/22 07:22:17;;;;;;;9.87;8.97;;;37.10;71.20;;;;;;4976749;28;20197;-86
2023/08/22 07:24:44;;;;;;;10.87;9.87;;;37.00;71.20;;;;;;4974257;28;20322;-81
2023/08/22 07:27:11;;;;;;;9.93;9.07;;;38.20;70.20;;;;;;4967948;28;20323;-82
2023/08/22 07:29:36;;;;;;;9.10;8.30;;;37.00;66.30;;;;;;4974247;28;20458;-85
2023/08/22 07:32:02;;;;;;;12.53;10.30;;;37.00;68.90;;;;;;4979030;28;20525;-82
2023/08/22 07:34:28;;;;;;;12.07;8.40;;;35.70;69.90;;;;;;4978785;28;20197;-82
2023/08/22 07:36:53;;;;;;;10.13;9.10;;;36.60;73.00;;;;;;4978366;28;20187;-83
2023/08/22 07:39:21;;;;;;;10.23;9.33;;;36.70;71.20;;;;;;4976451;28;20407;-81
2023/08/22 07:41:46;;;;;;;9.20;8.30;;;36.20;70.70;;;;;;4979284;28;20183;-82
2023/08/22 07:44:13;;;;;;;9.73;8.83;;;36.00;70.30;;;;;;4979271;28;20497;-80
2023/08/22 07:46:39;;;;;;;10.53;9.33;;;35.50;75.00;;;;;;4978719;28;20225;-83
2023/08/22 07:49:04;;;;;;;13.90;9.70;;;35.10;76.00;;;;;;4973609;28;20494;-82
2023/08/22 07:51:30;;;;;;;9.63;8.43;;;34.30;77.10;;;;;;4965310;28;20195;-79
2023/08/22 07:53:56;;;;;;;9.20;8.23;;;34.30;80.90;;;;;;4971294;28;20176;-80
2023/08/22 07:56:23;;;;;;;10.60;8.13;;;34.10;82.10;;;;;;4973420;28;20496;-82
2023/08/22 07:58:48;;;;;;;10.53;7.90;;;34.60;84.60;;;;;;4970472;28;20296;-84
2023/08/22 08:01:15;;;;;;;9.07;8.27;;;36.00;78.70;;;;;;4965570;28;20532;-81
2023/08/22 08:03:40;;;;;;;9.20;8.40;;;36.20;77.90;;;;;;4970747;28;20272;-83
2023/08/22 08:06:06;;;;;;;10.37;8.13;;;37.10;73.70;;;;;;4970429;28;20474;-85
2023/08/22 08:08:31;;;;;;;10.47;9.47;;;38.50;73.50;;;;;;4963430;28;20205;-82
2023/08/22 08:10:57;;;;;;;12.20;10.03;;;38.20;70.40;;;;;;4967162;28;20195;-83
2023/08/22 08:13:23;;;;;;;10.50;9.47;;;37.70;70.70;;;;;;4971734;28;20175;-84
2023/08/22 08:15:49;;;;;;;12.43;9.87;;;36.80;72.60;;;;;;4971813;28;20179;-79
2023/08/22 08:18:15;;;;;;;9.47;8.60;;;36.00;73.80;;;;;;4964825;28;20469;-80
2023/08/22 08:20:41;;;;;;;11.23;10.13;;;36.70;76.20;;;;;;4968080;28;20183;-79
2023/08/22 08:23:07;;;;;;;12.30;10.60;;;35.20;76.20;;;;;;4973181;28;20517;-82
2023/08/22 08:25:32;;;;;;;10.00;9.00;;;34.30;80.00;;;;;;4971422;28;21418;-80
2023/08/22 08:27:58;;;;;;;10.53;9.30;;;33.90;84.40;;;;;;4976221;28;20240;-85
2023/08/22 08:30:24;;;;;;;17.03;9.43;;;34.70;81.80;;;;;;4971913;28;20196;-86
2023/08/22 08:32:49;;;;;;;11.30;9.00;;;34.30;82.70;;;;;;4976143;28;20216;-82
2023/08/22 08:35:15;;;;;;;9.53;8.47;;;34.50;81.70;;;;;;4963752;28;20191;-81
2023/08/22 08:37:40;;;;;;;10.73;8.50;;;33.90;82.40;;;;;;4974851;28;20194;-82
2023/08/22 08:40:08;;;;;;;9.90;8.90;;;34.00;86.40;;;;;;4981502;28;20181;-83
2023/08/22 08:42:37;;;;;;;10.60;8.03;;;35.20;81.70;;;;;;4981181;28;20191;-82
2023/08/22 08:45:06;;;;;;;8.83;7.57;;;34.90;79.50;;;;;;4968829;28;20469;-82
2023/08/22 08:47:36;;;;;;;12.00;8.10;;;34.40;82.50;;;;;;4972670;28;20462;-81
2023/08/22 08:50:09;;;;;;;7.47;6.90;;;34.10;85.60;;;;;;4974803;28;20454;-83
2023/08/22 08:52:35;;;;;;;8.67;7.97;;;34.40;82.10;;;;;;4968841;28;20431;-84
2023/08/22 08:55:04;;;;;;;12.33;8.00;;;34.90;80.70;;;;;;4979191;28;20448;-82
2023/08/22 08:57:30;;;;;;;8.83;8.00;;;35.40;85.10;;;;;;4965250;28;20507;-81
2023/08/22 08:59:55;;;;;;;11.23;8.10;;;36.80;80.10;;;;;;4964204;28;20597;-85
2023/08/22 09:02:21;;;;;;;10.10;8.70;;;36.10;72.90;;;;;;4980485;28;20292;-85
2023/08/22 09:04:49;;;;;;;9.50;7.30;;;34.30;75.90;;;;;;4971184;28;20918;-83
2023/08/22 09:07:14;;;;;;;10.10;7.20;;;33.60;80.50;;;;;;4982329;28;20205;-79
2023/08/22 09:09:40;;;;;;;14.80;7.60;;;33.70;77.90;;;;;;4990652;28;20489;-83
2023/08/22 09:12:08;;;;;;;7.63;6.87;;;34.20;80.30;;;;;;4982823;28;20182;-85
2023/08/22 09:14:34;;;;;;;7.47;6.87;;;34.10;74.50;;;;;;4978873;28;20195;-83
2023/08/22 09:17:02;;;;;;;11.80;7.50;;;34.40;80.10;;;;;;4975852;28;20434;-83
2023/08/22 09:19:32;;;;;;;7.97;7.27;;;35.60;76.50;;;;;;4975887;28;20460;-80
2023/08/22 09:22:00;;;;;;;8.80;7.10;;;35.90;71.90;;;;;;4973607;28;20457;-86
2023/08/22 09:24:27;;;;;;;7.20;6.60;;;37.00;72.50;;;;;;4986851;28;20443;-83
2023/08/22 09:26:53;;;;;;;7.93;7.17;;;36.00;66.00;;;;;;4972953;28;20473;-82
2023/08/22 09:29:30;;;;;;;7.73;7.07;;;35.80;73.40;;;;;;4970178;28;20450;-82
2023/08/22 09:32:03;;;;;;;10.90;8.20;;;35.80;68.50;;;;;;4973957;28;21640;-84
2023/08/22 09:34:29;;;;;;;8.47;7.87;;;36.00;67.90;;;;;;4969889;28;20447;-85
2023/08/22 09:36:55;;;;;;;13.10;8.13;;;36.20;67.10;;;;;;4966300;28;20798;-81
2023/08/22 09:39:22;;;;;;;7.47;6.80;;;36.20;64.30;;;;;;4971141;28;20982;-83
2023/08/22 09:41:52;;;;;;;8.70;7.70;;;36.90;68.40;;;;;;4971903;28;20191;-84
2023/08/22 09:44:24;;;;;;;9.93;7.27;;;36.80;70.50;;;;;;4968539;28;20456;-85
2023/08/22 09:46:51;;;;;;;14.63;6.90;;;35.10;68.90;;;;;;4972063;28;20478;-84
2023/08/22 09:49:18;;;;;;;8.43;7.50;;;35.10;69.70;;;;;;4969603;28;20461;-82
2023/08/22 09:51:45;;;;;;;7.53;6.80;;;34.80;73.00;;;;;;4977735;28;20426;-84
2023/08/22 09:54:12;;;;;;;10.40;7.47;;;35.50;70.70;;;;;;4976694;28;20548;-86
2023/08/22 09:56:39;;;;;;;10.50;8.80;;;35.50;69.20;;;;;;4973282;28;21081;-82
2023/08/22 09:59:04;;;;;;;7.83;7.13;;;35.50;70.80;;;;;;4971469;28;20910;-81
2023/08/22 10:01:33;;;;;;;8.00;7.13;;;35.00;70.50;;;;;;4971953;28;20450;-83
2023/08/22 10:04:03;;;;;;;7.63;6.97;;;34.30;75.60;;;;;;4970195;28;20233;-85
2023/08/22 10:06:31;;;;;;;10.00;7.10;;;34.20;75.30;;;;;;4971445;28;20559;-81
2023/08/22 10:08:57;;;;;;;9.90;7.20;;;33.90;75.20;;;;;;4971259;28;20516;-85
2023/08/22 10:11:25;;;;;;;8.17;7.40;;;33.30;75.60;;;;;;4975973;28;20464;-80
2023/08/22 10:13:52;;;;;;;9.13;6.47;;;33.60;78.40;;;;;;4975908;28;20453;-80
2023/08/22 10:16:19;;;;;;;9.73;7.20;;;34.10;79.50;;;;;;4976013;28;20460;-83
2023/08/22 10:18:44;;;;;;;7.90;7.17;;;34.40;75.40;;;;;;4984192;28;20458;-86
2023/08/22 10:21:10;;;;;;;8.43;6.67;;;34.40;79.40;;;;;;4969477;28;20481;-83
2023/08/22 10:23:51;;;;;;;8.10;7.30;;;33.30;81.20;;;;;;4971225;28;20207;-83
2023/08/22 10:26:17;;;;;;;9.63;7.13;;;32.30;83.70;;;;;;4974941;28;20229;-83
2023/08/22 10:28:43;;;;;;;8.87;7.23;;;32.30;89.00;;;;;;4966414;28;20982;-81
2023/08/22 10:31:09;;;;;;;9.10;7.00;;;30.70;91.60;;;;;;4982529;28;20187;-79
2023/08/22 10:33:34;;;;;;;12.37;6.57;;;30.60;93.50;;;;;;4975228;28;20440;-82
2023/08/22 10:36:07;;;;;;;7.30;6.60;;;30.70;95.20;;;;;;4975733;28;20209;-83
2023/08/22 10:38:53;;;;;;;12.63;7.07;;;30.40;95.00;;;;;;4975892;28;20205;-80
2023/08/22 10:41:45;;;;;;;8.03;7.23;;;30.40;96.20;;;;;;4972363;28;20754;-80
2023/08/22 10:44:26;;;;;;;9.00;6.80;;;30.50;97.40;;;;;;4973770;28;20447;-83
2023/08/22 10:47:00;;;;;;;10.27;6.60;;;30.20;97.80;;;;;;4968370;28;20455;-80
2023/08/22 10:49:34;;;;;;;6.93;6.27;;;30.10;97.00;;;;;;4977986;28;20480;-82
2023/08/22 10:52:05;;;;;;;10.13;7.90;;;30.30;98.20;;;;;;4970210;28;20443;-79
2023/08/22 10:54:31;;;;;;;9.50;8.17;;;30.30;97.50;;;;;;4973726;28;20962;-83
2023/08/22 10:57:15;;;;;;;7.93;6.83;;;30.30;99.60;;;;;;4971195;28;20447;-82
2023/08/22 10:59:53;;;;;;;8.60;6.10;;;30.40;99.80;;;;;;4968010;28;20460;-84
2023/08/22 11:02:19;;;;;;;12.67;6.07;;;30.30;99.90;;;;;;4967348;28;20435;-84
2023/08/22 11:04:45;;;;;;;8.37;7.40;;;30.30;99.90;;;;;;4960534;28;20497;-82
2023/08/22 11:07:11;;;;;;;6.17;5.60;;;30.20;99.90;;;;;;4961534;28;20219;-79
2023/08/22 11:09:39;;;;;;;12.53;6.50;;;30.20;99.90;;;;;;4965018;28;20466;-81
2023/08/22 11:12:17;;;;;;;8.90;7.23;;;30.10;99.50;;;;;;4968814;28;20737;-85
2023/08/22 11:14:46;;;;;;;7.50;6.70;;;30.50;99.90;;;;;;4972188;28;20483;-80
2023/08/22 11:17:20;;;;;;;7.47;6.13;;;30.80;99.90;;;;;;4971010;28;21597;-83
2023/08/22 11:19:46;;;;;;;10.40;6.60;;;30.80;99.90;;;;;;4969805;28;20472;-77
2023/08/22 11:22:12;;;;;;;11.80;7.20;;;30.90;98.10;;;;;;4971926;28;21091;-82
2023/08/22 11:24:45;;;;;;;8.10;6.40;;;30.50;99.90;;;;;;4971559;28;20444;-83
2023/08/22 11:27:12;;;;;;;9.17;6.53;;;30.50;99.90;;;;;;4968859;28;20470;-81
2023/08/22 11:29:44;;;;;;;6.13;5.53;;;30.60;99.90;;;;;;4974002;28;20453;-80
2023/08/22 11:32:30;;;;;;;10.77;6.20;;;30.80;99.90;;;;;;4974453;28;20436;-82
2023/08/22 11:35:03;;;;;;;6.90;5.87;;;30.40;99.20;;;;;;4979572;28;20475;-81
2023/08/22 11:37:34;;;;;;;7.60;6.60;;;30.40;99.90;;;;;;4976882;28;20458;-82
2023/08/22 11:40:01;;;;;;;7.37;5.83;;;30.50;99.90;;;;;;4978981;28;21045;-79
2023/08/22 11:42:30;;;;;;;6.87;5.40;;;30.50;99.90;;;;;;4981221;28;20463;-79
2023/08/22 11:45:13;;;;;;;8.30;6.20;;;30.80;99.90;;;;;;4975607;28;20583;-82
2023/08/22 11:47:42;;;;;;;6.37;5.60;;;30.90;99.90;;;;;;4976268;28;20522;-83
2023/08/22 11:50:18;;;;;;;10.07;5.83;;;30.90;99.90;;;;;;4976355;28;20446;-81
2023/08/22 11:52:48;;;;;;;9.83;6.30;;;30.80;99.90;;;;;;4978459;28;20436;-79
2023/08/22 11:55:24;;;;;;;10.17;6.00;;;30.80;99.90;;;;;;4988454;28;21307;-80
2023/08/22 11:57:50;;;;;;;8.43;6.10;;;31.10;99.90;;;;;;4983537;28;20425;-85
2023/08/22 12:00:16;;;;;;;8.97;6.03;;;31.10;99.90;;;;;;4976111;28;20983;-82
2023/08/22 12:02:48;;;;;;;11.40;6.97;;;31.20;99.10;;;;;;4978701;28;20474;-82
2023/08/22 12:05:34;;;;;;;6.50;5.70;;;31.10;99.50;;;;;;4972498;28;20440;-83
2023/08/22 12:08:05;;;;;;;6.33;5.83;;;30.90;98.90;;;;;;4976471;28;20475;-84
2023/08/22 12:10:48;;;;;;;7.00;5.83;;;31.00;99.90;;;;;;4977828;28;20459;-80
2023/08/22 12:13:23;;;;;;;6.70;6.10;;;30.80;99.90;;;;;;4980999;28;20432;-83
2023/08/22 12:15:50;;;;;;;9.40;5.60;;;31.00;98.90;;;;;;4992956;28;20982;-83
2023/08/22 12:18:16;;;;;;;11.10;5.70;;;30.80;99.30;;;;;;4981769;28;20502;-82
2023/08/22 12:20:44;;;;;;;5.90;5.17;;;30.60;99.60;;;;;;4975803;28;20448;-81
2023/08/22 12:23:12;;;;;;;7.50;5.87;;;30.80;99.90;;;;;;4985809;28;20470;-83
2023/08/22 12:25:40;;;;;;;7.70;5.40;;;30.80;99.90;;;;;;4981396;28;20545;-80
2023/08/22 12:28:06;;;;;;;8.73;5.73;;;30.60;98.80;;;;;;4976367;28;21774;-83
2023/08/22 12:30:33;;;;;;;5.70;4.93;;;30.90;99.90;;;;;;4972607;28;20510;-82
2023/08/22 12:33:00;;;;;;;8.37;6.03;;;30.80;99.60;;;;;;4979962;28;20439;-80
2023/08/22 12:35:26;;;;;;;7.90;5.87;;;31.00;99.90;;;;;;4977041;28;20500;-79
2023/08/22 12:37:52;;;;;;;5.73;4.90;;;31.20;99.90;;;;;;4966592;28;20446;-83
2023/08/22 12:40:18;;;;;;;8.03;5.73;;;31.30;99.90;;;;;;4962727;28;20550;-84
2023/08/22 12:42:45;;;;;;;15.43;5.20;;;31.40;99.30;;;;;;4973938;28;20459;-84